sensor_id;sensor_type;location;lat;lon;timestamp;temperature;humidity
25024;DHT22;13033;50.936;5.334;2023-03-23T00:01:02;13.50;99.90
25024;DHT22;13033;50.936;5.334;2023-03-23T00:03:28;13.50;99.90
25024;DHT22;13033;50.936;5.334;2023-03-23T00:06:00;13.50;99.90
25024;DHT22;13033;50.936;5.334;2023-03-23T00:08:33;13.50;99.90
25024;DHT22;13033;50.936;5.334;2023-03-23T00:10:59;13.50;99.90
25024;DHT22;13033;50.936;5.334;2023-03-23T00:13:27;13.50;99.90
25024;DHT22;13033;50.936;5.334;2023-03-23T00:15:53;13.60;99.90
25024;DHT22;13033;50.936;5.334;2023-03-23T00:18:20;13.70;99.90
25024;DHT22;13033;50.936;5.334;2023-03-23T00:20:50;13.70;99.90
25024;DHT22;13033;50.936;5.334;2023-03-23T00:23:18;13.60;99.90
25024;DHT22;13033;50.936;5.334;2023-03-23T00:25:52;13.60;99.90
25024;DHT22;13033;50.936;5.334;2023-03-23T00:28:19;13.60;99.90
25024;DHT22;13033;50.936;5.334;2023-03-23T00:31:02;13.60;99.90
25024;DHT22;13033;50.936;5.334;2023-03-23T00:33:31;13.50;99.90
25024;DHT22;13033;50.936;5.334;2023-03-23T00:35:59;13.50;99.90
25024;DHT22;13033;50.936;5.334;2023-03-23T00:38:25;13.60;99.90
25024;DHT22;13033;50.936;5.334;2023-03-23T00:40:51;13.60;99.90
25024;DHT22;13033;50.936;5.334;2023-03-23T00:43:18;13.70;99.90
25024;DHT22;13033;50.936;5.334;2023-03-23T00:45:45;13.60;99.90
25024;DHT22;13033;50.936;5.334;2023-03-23T00:48:19;13.60;99.90
25024;DHT22;13033;50.936;5.334;2023-03-23T00:50:44;13.50;99.90
25024;DHT22;13033;50.936;5.334;2023-03-23T00:53:10;13.50;99.90
25024;DHT22;13033;50.936;5.334;2023-03-23T00:55:36;13.50;99.90
25024;DHT22;13033;50.936;5.334;2023-03-23T00:58:01;13.60;99.90
25024;DHT22;13033;50.936;5.334;2023-03-23T01:00:27;13.50;99.90
25024;DHT22;13033;50.936;5.334;2023-03-23T01:02:53;13.40;99.90
25024;DHT22;13033;50.936;5.334;2023-03-23T01:05:20;13.40;99.90
25024;DHT22;13033;50.936;5.334;2023-03-23T01:07:46;13.50;99.90
25024;DHT22;13033;50.936;5.334;2023-03-23T01:10:13;13.50;99.90
25024;DHT22;13033;50.936;5.334;2023-03-23T01:12:43;13.50;99.90
25024;DHT22;13033;50.936;5.334;2023-03-23T01:15:09;13.50;99.90
25024;DHT22;13033;50.936;5.334;2023-03-23T01:17:38;13.50;99.90
25024;DHT22;13033;50.936;5.334;2023-03-23T01:20:04;13.40;99.90
25024;DHT22;13033;50.936;5.334;2023-03-23T01:22:32;13.50;99.90
25024;DHT22;13033;50.936;5.334;2023-03-23T01:24:58;13.40;99.90
25024;DHT22;13033;50.936;5.334;2023-03-23T01:27:23;13.40;99.90
25024;DHT22;13033;50.936;5.334;2023-03-23T01:29:49;13.40;99.90
25024;DHT22;13033;50.936;5.334;2023-03-23T01:32:15;13.30;99.90
25024;DHT22;13033;50.936;5.334;2023-03-23T01:34:41;13.30;99.90
25024;DHT22;13033;50.936;5.334;2023-03-23T01:37:07;13.40;99.90
25024;DHT22;13033;50.936;5.334;2023-03-23T01:39:33;13.40;99.90
25024;DHT22;13033;50.936;5.334;2023-03-23T01:42:00;13.40;99.90
25024;DHT22;13033;50.936;5.334;2023-03-23T01:46:51;13.40;99.90
25024;DHT22;13033;50.936;5.334;2023-03-23T01:49:24;13.40;99.90
25024;DHT22;13033;50.936;5.334;2023-03-23T01:54:18;13.30;99.90
25024;DHT22;13033;50.936;5.334;2023-03-23T01:56:59;13.40;99.90
25024;DHT22;13033;50.936;5.334;2023-03-23T01:59:27;13.40;99.90
25024;DHT22;13033;50.936;5.334;2023-03-23T02:01:54;13.40;99.90
25024;DHT22;13033;50.936;5.334;2023-03-23T02:04:22;13.40;99.90
25024;DHT22;13033;50.936;5.334;2023-03-23T02:06:48;13.40;99.90
25024;DHT22;13033;50.936;5.334;2023-03-23T02:09:16;13.30;99.90
25024;DHT22;13033;50.936;5.334;2023-03-23T02:11:45;13.30;99.90
25024;DHT22;13033;50.936;5.334;2023-03-23T02:14:12;13.20;99.90
25024;DHT22;13033;50.936;5.334;2023-03-23T02:35:54;13.30;99.90
25024;DHT22;13033;50.936;5.334;2023-03-23T02:41:19;13.30;99.90
25024;DHT22;13033;50.936;5.334;2023-03-23T02:43:47;13.30;99.90
25024;DHT22;13033;50.936;5.334;2023-03-23T02:46:14;13.40;99.90
25024;DHT22;13033;50.936;5.334;2023-03-23T02:48:42;13.40;99.90
25024;DHT22;13033;50.936;5.334;2023-03-23T02:51:10;13.30;99.90
25024;DHT22;13033;50.936;5.334;2023-03-23T02:53:40;13.30;99.90
25024;DHT22;13033;50.936;5.334;2023-03-23T02:56:08;13.40;99.90
25024;DHT22;13033;50.936;5.334;2023-03-23T02:58:34;13.40;99.90
25024;DHT22;13033;50.936;5.334;2023-03-23T03:01:14;13.40;99.90
25024;DHT22;13033;50.936;5.334;2023-03-23T03:03:41;13.40;99.90
25024;DHT22;13033;50.936;5.334;2023-03-23T03:06:14;13.50;99.90
25024;DHT22;13033;50.936;5.334;2023-03-23T03:08:57;13.50;99.90
25024;DHT22;13033;50.936;5.334;2023-03-23T03:11:24;13.50;99.90
25024;DHT22;13033;50.936;5.334;2023-03-23T03:14:00;13.50;99.90
25024;DHT22;13033;50.936;5.334;2023-03-23T03:16:52;13.50;99.90
25024;DHT22;13033;50.936;5.334;2023-03-23T03:19:56;13.50;99.90
25024;DHT22;13033;50.936;5.334;2023-03-23T03:22:14;13.50;99.90
25024;DHT22;13033;50.936;5.334;2023-03-23T03:24:40;13.50;99.90
25024;DHT22;13033;50.936;5.334;2023-03-23T03:27:13;13.50;99.90
25024;DHT22;13033;50.936;5.334;2023-03-23T03:29:45;13.60;99.90
25024;DHT22;13033;50.936;5.334;2023-03-23T03:32:17;13.60;99.90
25024;DHT22;13033;50.936;5.334;2023-03-23T03:34:45;13.50;99.90
25024;DHT22;13033;50.936;5.334;2023-03-23T03:37:11;13.50;99.90
25024;DHT22;13033;50.936;5.334;2023-03-23T03:39:37;13.60;99.90
25024;DHT22;13033;50.936;5.334;2023-03-23T03:42:06;13.60;99.90
25024;DHT22;13033;50.936;5.334;2023-03-23T03:44:33;13.60;99.90
25024;DHT22;13033;50.936;5.334;2023-03-23T03:46:59;13.60;99.90
25024;DHT22;13033;50.936;5.334;2023-03-23T03:49:25;13.60;99.90
25024;DHT22;13033;50.936;5.334;2023-03-23T03:51:51;13.60;99.90
25024;DHT22;13033;50.936;5.334;2023-03-23T03:54:17;13.70;99.90
25024;DHT22;13033;50.936;5.334;2023-03-23T03:56:42;13.70;99.90
25024;DHT22;13033;50.936;5.334;2023-03-23T03:59:09;13.60;99.90
25024;DHT22;13033;50.936;5.334;2023-03-23T04:01:37;13.60;99.90
25024;DHT22;13033;50.936;5.334;2023-03-23T04:04:03;13.70;99.90
25024;DHT22;13033;50.936;5.334;2023-03-23T04:06:32;13.70;99.90
25024;DHT22;13033;50.936;5.334;2023-03-23T04:08:58;13.60;99.90
25024;DHT22;13033;50.936;5.334;2023-03-23T04:11:25;13.60;99.90
25024;DHT22;13033;50.936;5.334;2023-03-23T04:13:51;13.60;99.90
25024;DHT22;13033;50.936;5.334;2023-03-23T04:16:17;13.50;99.90
25024;DHT22;13033;50.936;5.334;2023-03-23T04:18:43;13.50;99.90
25024;DHT22;13033;50.936;5.334;2023-03-23T04:21:09;13.50;99.90
25024;DHT22;13033;50.936;5.334;2023-03-23T04:23:36;13.50;99.90
25024;DHT22;13033;50.936;5.334;2023-03-23T04:26:03;13.50;99.90
25024;DHT22;13033;50.936;5.334;2023-03-23T04:28:29;13.60;99.90
25024;DHT22;13033;50.936;5.334;2023-03-23T04:30:59;13.60;99.90
25024;DHT22;13033;50.936;5.334;2023-03-23T04:33:27;13.70;99.90
25024;DHT22;13033;50.936;5.334;2023-03-23T04:35:54;13.70;99.90
25024;DHT22;13033;50.936;5.334;2023-03-23T04:38:21;13.60;99.90
25024;DHT22;13033;50.936;5.334;2023-03-23T04:40:49;13.50;99.90
25024;DHT22;13033;50.936;5.334;2023-03-23T04:43:22;13.50;99.90
25024;DHT22;13033;50.936;5.334;2023-03-23T04:45:56;13.50;99.90
25024;DHT22;13033;50.936;5.334;2023-03-23T04:48:27;13.60;99.90
25024;DHT22;13033;50.936;5.334;2023-03-23T04:50:53;13.50;99.90
25024;DHT22;13033;50.936;5.334;2023-03-23T04:53:19;13.40;99.90
25024;DHT22;13033;50.936;5.334;2023-03-23T04:55:46;13.40;99.90
25024;DHT22;13033;50.936;5.334;2023-03-23T04:58:13;13.40;99.90
25024;DHT22;13033;50.936;5.334;2023-03-23T05:00:40;13.30;99.90
25024;DHT22;13033;50.936;5.334;2023-03-23T05:03:12;13.30;99.90
25024;DHT22;13033;50.936;5.334;2023-03-23T05:05:42;13.20;99.90
25024;DHT22;13033;50.936;5.334;2023-03-23T05:08:08;13.30;99.90
25024;DHT22;13033;50.936;5.334;2023-03-23T05:10:33;13.30;99.90
25024;DHT22;13033;50.936;5.334;2023-03-23T05:12:59;13.30;99.90
25024;DHT22;13033;50.936;5.334;2023-03-23T05:15:25;13.30;99.90
25024;DHT22;13033;50.936;5.334;2023-03-23T05:17:53;13.40;99.90
25024;DHT22;13033;50.936;5.334;2023-03-23T05:20:19;13.40;99.90
25024;DHT22;13033;50.936;5.334;2023-03-23T05:22:46;13.40;99.90
25024;DHT22;13033;50.936;5.334;2023-03-23T05:25:16;13.40;99.90
25024;DHT22;13033;50.936;5.334;2023-03-23T05:27:46;13.30;99.90
25024;DHT22;13033;50.936;5.334;2023-03-23T05:30:14;13.30;99.90
25024;DHT22;13033;50.936;5.334;2023-03-23T05:32:44;13.30;99.90
25024;DHT22;13033;50.936;5.334;2023-03-23T05:35:11;13.40;99.90
25024;DHT22;13033;50.936;5.334;2023-03-23T05:37:37;13.40;99.90
25024;DHT22;13033;50.936;5.334;2023-03-23T05:40:05;13.30;99.90
25024;DHT22;13033;50.936;5.334;2023-03-23T05:42:33;13.20;99.90
25024;DHT22;13033;50.936;5.334;2023-03-23T05:45:00;13.20;99.90
25024;DHT22;13033;50.936;5.334;2023-03-23T05:47:26;13.20;99.90
25024;DHT22;13033;50.936;5.334;2023-03-23T05:49:52;13.30;99.90
25024;DHT22;13033;50.936;5.334;2023-03-23T05:52:18;13.30;99.90
25024;DHT22;13033;50.936;5.334;2023-03-23T05:54:44;13.20;99.90
25024;DHT22;13033;50.936;5.334;2023-03-23T05:57:10;13.30;99.90
25024;DHT22;13033;50.936;5.334;2023-03-23T05:59:36;13.30;99.90
25024;DHT22;13033;50.936;5.334;2023-03-23T06:02:03;13.30;99.90
25024;DHT22;13033;50.936;5.334;2023-03-23T06:04:29;13.30;99.90
25024;DHT22;13033;50.936;5.334;2023-03-23T06:06:54;13.20;99.90
25024;DHT22;13033;50.936;5.334;2023-03-23T06:09:21;13.10;99.90
25024;DHT22;13033;50.936;5.334;2023-03-23T06:11:48;13.10;99.90
25024;DHT22;13033;50.936;5.334;2023-03-23T06:14:14;13.10;99.90
25024;DHT22;13033;50.936;5.334;2023-03-23T06:16:40;13.20;99.90
25024;DHT22;13033;50.936;5.334;2023-03-23T06:19:05;13.20;99.90
25024;DHT22;13033;50.936;5.334;2023-03-23T06:21:32;13.20;99.90
25024;DHT22;13033;50.936;5.334;2023-03-23T06:23:58;13.30;99.90
25024;DHT22;13033;50.936;5.334;2023-03-23T06:26:29;13.30;99.90
25024;DHT22;13033;50.936;5.334;2023-03-23T06:28:56;13.20;99.90
25024;DHT22;13033;50.936;5.334;2023-03-23T06:31:23;13.20;99.90
25024;DHT22;13033;50.936;5.334;2023-03-23T06:33:49;13.30;99.90
25024;DHT22;13033;50.936;5.334;2023-03-23T06:36:15;13.30;99.90
25024;DHT22;13033;50.936;5.334;2023-03-23T06:38:42;13.30;99.90
25024;DHT22;13033;50.936;5.334;2023-03-23T06:41:08;13.30;99.90
25024;DHT22;13033;50.936;5.334;2023-03-23T06:43:34;13.30;99.90
25024;DHT22;13033;50.936;5.334;2023-03-23T06:46:03;13.40;99.90
25024;DHT22;13033;50.936;5.334;2023-03-23T06:48:29;13.30;99.90
25024;DHT22;13033;50.936;5.334;2023-03-23T06:50:55;13.20;99.90
25024;DHT22;13033;50.936;5.334;2023-03-23T06:53:21;13.30;99.90
25024;DHT22;13033;50.936;5.334;2023-03-23T06:55:47;13.30;99.90
25024;DHT22;13033;50.936;5.334;2023-03-23T06:58:13;13.30;99.90
25024;DHT22;13033;50.936;5.334;2023-03-23T07:00:39;13.40;99.90
25024;DHT22;13033;50.936;5.334;2023-03-23T07:03:06;13.40;99.90
25024;DHT22;13033;50.936;5.334;2023-03-23T07:05:33;13.50;99.90
25024;DHT22;13033;50.936;5.334;2023-03-23T07:07:59;13.40;99.90
25024;DHT22;13033;50.936;5.334;2023-03-23T07:10:25;13.40;99.90
25024;DHT22;13033;50.936;5.334;2023-03-23T07:12:50;13.50;99.90
25024;DHT22;13033;50.936;5.334;2023-03-23T07:15:17;13.50;99.90
25024;DHT22;13033;50.936;5.334;2023-03-23T07:17:42;13.60;99.90
25024;DHT22;13033;50.936;5.334;2023-03-23T07:20:08;13.70;99.90
25024;DHT22;13033;50.936;5.334;2023-03-23T07:22:35;13.60;99.90
25024;DHT22;13033;50.936;5.334;2023-03-23T07:25:01;13.60;99.90
25024;DHT22;13033;50.936;5.334;2023-03-23T07:27:27;13.60;99.90
25024;DHT22;13033;50.936;5.334;2023-03-23T07:29:52;13.70;99.90
25024;DHT22;13033;50.936;5.334;2023-03-23T07:32:18;13.90;99.90
25024;DHT22;13033;50.936;5.334;2023-03-23T07:34:44;13.90;99.90
25024;DHT22;13033;50.936;5.334;2023-03-23T07:37:11;13.80;99.90
25024;DHT22;13033;50.936;5.334;2023-03-23T07:39:37;13.80;99.90
25024;DHT22;13033;50.936;5.334;2023-03-23T07:42:03;13.80;99.90
25024;DHT22;13033;50.936;5.334;2023-03-23T07:44:28;13.90;99.90
25024;DHT22;13033;50.936;5.334;2023-03-23T07:46:54;13.90;99.90
25024;DHT22;13033;50.936;5.334;2023-03-23T07:49:20;13.90;99.90
25024;DHT22;13033;50.936;5.334;2023-03-23T07:51:46;13.90;99.90
25024;DHT22;13033;50.936;5.334;2023-03-23T07:54:12;13.80;99.90
25024;DHT22;13033;50.936;5.334;2023-03-23T07:56:39;13.70;99.90
25024;DHT22;13033;50.936;5.334;2023-03-23T07:59:05;13.80;99.90
25024;DHT22;13033;50.936;5.334;2023-03-23T08:01:32;13.90;99.90
25024;DHT22;13033;50.936;5.334;2023-03-23T08:03:57;14.00;99.90
25024;DHT22;13033;50.936;5.334;2023-03-23T08:06:25;13.90;99.90
25024;DHT22;13033;50.936;5.334;2023-03-23T08:08:51;13.90;99.90
25024;DHT22;13033;50.936;5.334;2023-03-23T08:11:17;13.90;99.90
25024;DHT22;13033;50.936;5.334;2023-03-23T08:13:44;13.90;99.90
25024;DHT22;13033;50.936;5.334;2023-03-23T08:16:10;14.00;99.90
25024;DHT22;13033;50.936;5.334;2023-03-23T08:18:36;13.90;99.90
25024;DHT22;13033;50.936;5.334;2023-03-23T08:21:03;13.80;99.90
25024;DHT22;13033;50.936;5.334;2023-03-23T08:23:35;13.70;99.90
25024;DHT22;13033;50.936;5.334;2023-03-23T08:26:05;13.70;99.90
25024;DHT22;13033;50.936;5.334;2023-03-23T08:28:35;13.70;99.90
25024;DHT22;13033;50.936;5.334;2023-03-23T08:31:12;13.70;99.90
25024;DHT22;13033;50.936;5.334;2023-03-23T08:33:38;13.70;99.90
25024;DHT22;13033;50.936;5.334;2023-03-23T08:36:05;13.70;99.90
25024;DHT22;13033;50.936;5.334;2023-03-23T08:38:32;13.80;99.90
25024;DHT22;13033;50.936;5.334;2023-03-23T08:41:02;13.50;99.90
25024;DHT22;13033;50.936;5.334;2023-03-23T08:43:30;13.10;99.90
25024;DHT22;13033;50.936;5.334;2023-03-23T08:45:57;12.90;99.90
25024;DHT22;13033;50.936;5.334;2023-03-23T08:48:23;12.60;99.90
25024;DHT22;13033;50.936;5.334;2023-03-23T08:50:49;12.10;99.90
25024;DHT22;13033;50.936;5.334;2023-03-23T08:53:16;12.10;99.90
25024;DHT22;13033;50.936;5.334;2023-03-23T08:55:41;12.10;99.90
25024;DHT22;13033;50.936;5.334;2023-03-23T08:58:08;12.00;99.90
25024;DHT22;13033;50.936;5.334;2023-03-23T09:00:35;11.80;99.90
25024;DHT22;13033;50.936;5.334;2023-03-23T09:03:01;11.60;99.90
25024;DHT22;13033;50.936;5.334;2023-03-23T09:05:28;11.80;99.90
25024;DHT22;13033;50.936;5.334;2023-03-23T09:07:56;11.80;99.90
25024;DHT22;13033;50.936;5.334;2023-03-23T09:10:26;11.70;99.90
25024;DHT22;13033;50.936;5.334;2023-03-23T09:12:52;11.60;99.90
25024;DHT22;13033;50.936;5.334;2023-03-23T09:15:19;11.60;99.90
25024;DHT22;13033;50.936;5.334;2023-03-23T09:17:48;11.60;99.90
25024;DHT22;13033;50.936;5.334;2023-03-23T09:20:18;11.60;99.90
25024;DHT22;13033;50.936;5.334;2023-03-23T09:22:48;11.50;99.90
25024;DHT22;13033;50.936;5.334;2023-03-23T09:25:16;11.50;99.90
25024;DHT22;13033;50.936;5.334;2023-03-23T09:27:44;11.60;99.90
25024;DHT22;13033;50.936;5.334;2023-03-23T09:30:13;11.80;99.90
25024;DHT22;13033;50.936;5.334;2023-03-23T09:32:48;12.00;99.90
25024;DHT22;13033;50.936;5.334;2023-03-23T09:35:15;12.10;99.90
25024;DHT22;13033;50.936;5.334;2023-03-23T09:37:45;12.30;99.90
25024;DHT22;13033;50.936;5.334;2023-03-23T09:40:42;12.40;99.90
25024;DHT22;13033;50.936;5.334;2023-03-23T09:48:59;12.50;99.90
25024;DHT22;13033;50.936;5.334;2023-03-23T09:51:44;12.70;99.90
25024;DHT22;13033;50.936;5.334;2023-03-23T09:56:49;12.60;99.90
25024;DHT22;13033;50.936;5.334;2023-03-23T09:59:39;12.60;99.90
25024;DHT22;13033;50.936;5.334;2023-03-23T10:02:24;12.50;99.90
25024;DHT22;13033;50.936;5.334;2023-03-23T10:04:55;12.30;99.90
25024;DHT22;13033;50.936;5.334;2023-03-23T10:07:26;12.40;99.90
25024;DHT22;13033;50.936;5.334;2023-03-23T10:09:55;12.40;99.90
25024;DHT22;13033;50.936;5.334;2023-03-23T10:12:42;12.50;99.90
25024;DHT22;13033;50.936;5.334;2023-03-23T10:18:00;12.40;99.90
25024;DHT22;13033;50.936;5.334;2023-03-23T10:20:42;12.30;99.90
25024;DHT22;13033;50.936;5.334;2023-03-23T10:28:46;12.40;99.90
25024;DHT22;13033;50.936;5.334;2023-03-23T10:31:38;12.40;99.90
25024;DHT22;13033;50.936;5.334;2023-03-23T10:37:31;12.80;99.90
25024;DHT22;13033;50.936;5.334;2023-03-23T10:40:03;12.70;99.90
25024;DHT22;13033;50.936;5.334;2023-03-23T10:42:36;12.90;99.90
25024;DHT22;13033;50.936;5.334;2023-03-23T10:45:33;13.10;99.90
25024;DHT22;13033;50.936;5.334;2023-03-23T10:50:34;13.20;99.90
25024;DHT22;13033;50.936;5.334;2023-03-23T10:53:07;13.20;99.90
25024;DHT22;13033;50.936;5.334;2023-03-23T10:55:40;13.40;99.90
25024;DHT22;13033;50.936;5.334;2023-03-23T10:58:11;13.60;99.90
25024;DHT22;13033;50.936;5.334;2023-03-23T11:00:45;13.60;99.90
25024;DHT22;13033;50.936;5.334;2023-03-23T11:05:51;13.40;99.90
25024;DHT22;13033;50.936;5.334;2023-03-23T11:08:23;13.30;99.90
25024;DHT22;13033;50.936;5.334;2023-03-23T11:13:21;13.10;99.90
25024;DHT22;13033;50.936;5.334;2023-03-23T11:15:48;12.90;99.90
25024;DHT22;13033;50.936;5.334;2023-03-23T11:18:24;13.00;99.90
25024;DHT22;13033;50.936;5.334;2023-03-23T11:20:56;13.20;99.90
25024;DHT22;13033;50.936;5.334;2023-03-23T11:23:30;13.20;99.90
25024;DHT22;13033;50.936;5.334;2023-03-23T11:28:41;13.30;99.90
25024;DHT22;13033;50.936;5.334;2023-03-23T11:31:08;13.40;99.90
25024;DHT22;13033;50.936;5.334;2023-03-23T11:33:50;13.20;99.90
25024;DHT22;13033;50.936;5.334;2023-03-23T11:36:17;13.30;99.90
25024;DHT22;13033;50.936;5.334;2023-03-23T11:38:44;13.50;99.90
25024;DHT22;13033;50.936;5.334;2023-03-23T11:41:17;13.50;99.90
25024;DHT22;13033;50.936;5.334;2023-03-23T11:43:45;13.70;99.90
25024;DHT22;13033;50.936;5.334;2023-03-23T11:46:34;14.10;99.90
25024;DHT22;13033;50.936;5.334;2023-03-23T11:49:10;14.40;99.90
25024;DHT22;13033;50.936;5.334;2023-03-23T11:58:16;14.70;99.90
25024;DHT22;13033;50.936;5.334;2023-03-23T12:00:56;14.50;99.90
25024;DHT22;13033;50.936;5.334;2023-03-23T12:03:38;14.70;99.90
25024;DHT22;13033;50.936;5.334;2023-03-23T12:06:06;14.70;99.90
25024;DHT22;13033;50.936;5.334;2023-03-23T12:11:28;14.90;99.90
25024;DHT22;13033;50.936;5.334;2023-03-23T12:14:19;15.00;99.90
25024;DHT22;13033;50.936;5.334;2023-03-23T12:17:12;15.40;99.90
25024;DHT22;13033;50.936;5.334;2023-03-23T12:25:13;15.30;99.90
25024;DHT22;13033;50.936;5.334;2023-03-23T12:27:51;15.50;99.90
25024;DHT22;13033;50.936;5.334;2023-03-23T12:33:43;15.50;99.90
25024;DHT22;13033;50.936;5.334;2023-03-23T12:44:47;15.40;99.90
25024;DHT22;13033;50.936;5.334;2023-03-23T12:49:48;15.30;99.90
25024;DHT22;13033;50.936;5.334;2023-03-23T12:52:40;15.10;99.90
25024;DHT22;13033;50.936;5.334;2023-03-23T12:58:10;14.90;99.90
25024;DHT22;13033;50.936;5.334;2023-03-23T13:00:56;15.00;99.90
25024;DHT22;13033;50.936;5.334;2023-03-23T13:03:44;15.10;99.90
25024;DHT22;13033;50.936;5.334;2023-03-23T13:09:01;15.10;99.90
25024;DHT22;13033;50.936;5.334;2023-03-23T13:11:38;15.30;99.90
25024;DHT22;13033;50.936;5.334;2023-03-23T13:16:46;15.60;99.90
25024;DHT22;13033;50.936;5.334;2023-03-23T13:24:39;15.60;99.90
25024;DHT22;13033;50.936;5.334;2023-03-23T13:27:08;15.40;99.90
25024;DHT22;13033;50.936;5.334;2023-03-23T13:29:35;15.40;99.90
25024;DHT22;13033;50.936;5.334;2023-03-23T13:32:06;15.40;99.90
25024;DHT22;13033;50.936;5.334;2023-03-23T13:34:32;15.30;99.90
25024;DHT22;13033;50.936;5.334;2023-03-23T13:37:08;15.30;99.90
25024;DHT22;13033;50.936;5.334;2023-03-23T13:42:23;14.80;99.90
25024;DHT22;13033;50.936;5.334;2023-03-23T13:58:12;13.90;99.90
25024;DHT22;13033;50.936;5.334;2023-03-23T14:03:49;14.40;99.90
25024;DHT22;13033;50.936;5.334;2023-03-23T14:06:22;14.50;99.90
25024;DHT22;13033;50.936;5.334;2023-03-23T14:08:52;14.70;99.90
25024;DHT22;13033;50.936;5.334;2023-03-23T14:11:29;14.90;99.90
25024;DHT22;13033;50.936;5.334;2023-03-23T14:14:20;14.90;99.90
25024;DHT22;13033;50.936;5.334;2023-03-23T14:16:50;14.90;99.90
25024;DHT22;13033;50.936;5.334;2023-03-23T14:19:27;15.00;99.90
25024;DHT22;13033;50.936;5.334;2023-03-23T14:21:59;14.90;99.90
25024;DHT22;13033;50.936;5.334;2023-03-23T14:24:33;14.80;99.90
25024;DHT22;13033;50.936;5.334;2023-03-23T14:27:22;15.00;99.90
25024;DHT22;13033;50.936;5.334;2023-03-23T14:30:22;15.20;99.90
25024;DHT22;13033;50.936;5.334;2023-03-23T14:32:47;15.40;99.90
25024;DHT22;13033;50.936;5.334;2023-03-23T14:35:28;15.70;99.90
25024;DHT22;13033;50.936;5.334;2023-03-23T14:37:55;15.90;99.90
25024;DHT22;13033;50.936;5.334;2023-03-23T14:40:22;16.00;99.90
25024;DHT22;13033;50.936;5.334;2023-03-23T14:42:50;15.90;99.90
25024;DHT22;13033;50.936;5.334;2023-03-23T14:45:18;16.00;99.90
25024;DHT22;13033;50.936;5.334;2023-03-23T14:47:47;16.00;99.90
25024;DHT22;13033;50.936;5.334;2023-03-23T14:50:24;16.00;99.90
25024;DHT22;13033;50.936;5.334;2023-03-23T14:52:51;15.80;99.90
25024;DHT22;13033;50.936;5.334;2023-03-23T14:55:19;15.60;99.90
25024;DHT22;13033;50.936;5.334;2023-03-23T14:57:47;15.60;99.90
25024;DHT22;13033;50.936;5.334;2023-03-23T15:00:22;15.50;99.90
25024;DHT22;13033;50.936;5.334;2023-03-23T15:02:52;15.60;99.90
25024;DHT22;13033;50.936;5.334;2023-03-23T15:05:31;16.10;99.90
25024;DHT22;13033;50.936;5.334;2023-03-23T15:08:04;16.40;99.90
25024;DHT22;13033;50.936;5.334;2023-03-23T15:10:31;16.30;99.90
25024;DHT22;13033;50.936;5.334;2023-03-23T15:12:56;16.20;99.90
25024;DHT22;13033;50.936;5.334;2023-03-23T15:15:34;16.00;99.90
25024;DHT22;13033;50.936;5.334;2023-03-23T15:18:01;16.00;99.90
25024;DHT22;13033;50.936;5.334;2023-03-23T15:20:31;15.80;99.90
25024;DHT22;13033;50.936;5.334;2023-03-23T15:23:15;15.80;99.90
25024;DHT22;13033;50.936;5.334;2023-03-23T15:25:48;15.70;99.90
25024;DHT22;13033;50.936;5.334;2023-03-23T15:28:27;15.60;99.90
25024;DHT22;13033;50.936;5.334;2023-03-23T15:31:00;15.50;99.90
25024;DHT22;13033;50.936;5.334;2023-03-23T15:33:26;15.50;99.90
25024;DHT22;13033;50.936;5.334;2023-03-23T15:35:55;15.50;99.90
25024;DHT22;13033;50.936;5.334;2023-03-23T15:38:28;15.60;99.90
25024;DHT22;13033;50.936;5.334;2023-03-23T15:40:59;15.80;99.90
25024;DHT22;13033;50.936;5.334;2023-03-23T15:43:32;15.70;99.90
25024;DHT22;13033;50.936;5.334;2023-03-23T15:48:45;15.70;99.90
25024;DHT22;13033;50.936;5.334;2023-03-23T15:51:11;15.70;99.90
25024;DHT22;13033;50.936;5.334;2023-03-23T15:53:38;15.70;99.90
25024;DHT22;13033;50.936;5.334;2023-03-23T15:56:06;15.90;99.90
25024;DHT22;13033;50.936;5.334;2023-03-23T15:58:33;16.30;99.90
25024;DHT22;13033;50.936;5.334;2023-03-23T16:01:03;16.90;99.90
25024;DHT22;13033;50.936;5.334;2023-03-23T16:03:51;17.30;99.90
25024;DHT22;13033;50.936;5.334;2023-03-23T16:06:21;17.80;99.90
25024;DHT22;13033;50.936;5.334;2023-03-23T16:08:48;18.20;99.90
25024;DHT22;13033;50.936;5.334;2023-03-23T16:11:15;18.00;99.90
25024;DHT22;13033;50.936;5.334;2023-03-23T16:13:41;17.80;99.90
25024;DHT22;13033;50.936;5.334;2023-03-23T16:16:24;17.70;99.90
25024;DHT22;13033;50.936;5.334;2023-03-23T16:18:50;17.60;99.90
25024;DHT22;13033;50.936;5.334;2023-03-23T16:21:16;17.40;99.90
25024;DHT22;13033;50.936;5.334;2023-03-23T16:23:41;17.10;99.90
25024;DHT22;13033;50.936;5.334;2023-03-23T16:26:11;16.90;99.90
25024;DHT22;13033;50.936;5.334;2023-03-23T16:28:36;16.60;99.90
25024;DHT22;13033;50.936;5.334;2023-03-23T16:31:02;16.50;99.90
25024;DHT22;13033;50.936;5.334;2023-03-23T16:33:28;16.40;99.90
25024;DHT22;13033;50.936;5.334;2023-03-23T16:35:54;16.20;99.90
25024;DHT22;13033;50.936;5.334;2023-03-23T16:38:22;16.20;99.90
25024;DHT22;13033;50.936;5.334;2023-03-23T16:40:47;16.00;99.90
25024;DHT22;13033;50.936;5.334;2023-03-23T16:43:13;16.00;99.90
25024;DHT22;13033;50.936;5.334;2023-03-23T16:45:41;16.10;99.90
25024;DHT22;13033;50.936;5.334;2023-03-23T16:48:07;16.40;99.90
25024;DHT22;13033;50.936;5.334;2023-03-23T16:50:34;16.70;99.90
25024;DHT22;13033;50.936;5.334;2023-03-23T16:53:00;16.70;99.90
25024;DHT22;13033;50.936;5.334;2023-03-23T16:55:27;16.50;99.90
25024;DHT22;13033;50.936;5.334;2023-03-23T16:57:54;16.30;99.90
25024;DHT22;13033;50.936;5.334;2023-03-23T17:00:20;16.20;99.90
25024;DHT22;13033;50.936;5.334;2023-03-23T17:02:48;15.90;99.90
25024;DHT22;13033;50.936;5.334;2023-03-23T17:05:20;15.90;99.90
25024;DHT22;13033;50.936;5.334;2023-03-23T17:07:47;15.70;99.90
25024;DHT22;13033;50.936;5.334;2023-03-23T17:10:13;15.50;99.90
25024;DHT22;13033;50.936;5.334;2023-03-23T17:12:40;15.60;99.90
25024;DHT22;13033;50.936;5.334;2023-03-23T17:15:07;15.60;99.90
25024;DHT22;13033;50.936;5.334;2023-03-23T17:17:33;15.70;99.90
25024;DHT22;13033;50.936;5.334;2023-03-23T17:19:58;15.80;99.90
25024;DHT22;13033;50.936;5.334;2023-03-23T17:22:24;15.70;99.90
25024;DHT22;13033;50.936;5.334;2023-03-23T17:24:50;15.80;99.90
25024;DHT22;13033;50.936;5.334;2023-03-23T17:27:18;15.70;99.90
25024;DHT22;13033;50.936;5.334;2023-03-23T17:29:44;15.70;99.90
25024;DHT22;13033;50.936;5.334;2023-03-23T17:32:10;15.70;99.90
25024;DHT22;13033;50.936;5.334;2023-03-23T17:34:36;15.70;99.90
25024;DHT22;13033;50.936;5.334;2023-03-23T17:37:03;15.60;99.90
25024;DHT22;13033;50.936;5.334;2023-03-23T17:39:29;15.60;99.90
25024;DHT22;13033;50.936;5.334;2023-03-23T17:41:57;15.60;99.90
25024;DHT22;13033;50.936;5.334;2023-03-23T17:44:23;15.40;99.90
25024;DHT22;13033;50.936;5.334;2023-03-23T17:46:48;15.20;99.90